Orbital elements of FENGYUN 1C DEB
| Launched | 9 May 1999 |
| Flight ended | – |
| Launch site | Taiyuan Space Center, PRC |
| Owner | People's Republic of China |
| NORAD ID | 30474 |
| Date fetched |
Epoch osculation |
Inc. [°] |
Ecc. | RA asc node [hr] |
Arg Peri. [°] |
Mean anom [°] |
Mean motion [rev/day] |
Abs. mag |
| Date fetched |
Epoch osculation |
Inc. [°] |
Ecc. | RA asc node [hr] |
Arg Peri. [°] |
Mean anom [°] |
Mean motion [rev/day] |
Abs. mag |
| 2026 May 03 17:57 | 2026 Apr 30 05:49:43 | 98.9194 | 0.00223 | 13.9751 | 313.5166 | 110.3360 | 14.39698 | – |
| 2026 May 02 17:57 | 2026 Apr 30 05:49:43 | 98.9194 | 0.00223 | 13.9751 | 313.5166 | 110.3360 | 14.39698 | – |
| 2026 May 01 17:56 | 2026 Apr 30 05:49:43 | 98.9194 | 0.00223 | 13.9751 | 313.5166 | 110.3360 | 14.39698 | – |
| 2026 Apr 30 17:56 | 2026 Apr 30 05:49:43 | 98.9194 | 0.00223 | 13.9751 | 313.5166 | 110.3360 | 14.39698 | – |
| 2026 Apr 29 17:57 | 2026 Apr 22 06:00:08 | 98.9186 | 0.00224 | 13.4206 | 339.9438 | 110.3360 | 14.39698 | – |
| 2026 Apr 28 17:56 | 2026 Apr 22 06:00:08 | 98.9186 | 0.00224 | 13.4206 | 339.9438 | 110.3360 | 14.39698 | – |
| 2026 Apr 27 17:58 | 2026 Apr 22 06:00:08 | 98.9186 | 0.00224 | 13.4206 | 339.9438 | 110.3360 | 14.39698 | – |
| 2026 Apr 26 17:58 | 2026 Apr 22 06:00:08 | 98.9186 | 0.00224 | 13.4206 | 339.9438 | 110.3360 | 14.39698 | – |
| 2026 Apr 25 17:58 | 2026 Apr 22 06:00:08 | 98.9186 | 0.00224 | 13.4206 | 339.9438 | 110.3360 | 14.39698 | – |
| 2026 Apr 24 17:59 | 2026 Apr 22 06:00:08 | 98.9186 | 0.00224 | 13.4206 | 339.9438 | 110.3360 | 14.39698 | – |
| 2026 Apr 23 17:57 | 2026 Apr 19 04:27:19 | 98.9194 | 0.00225 | 13.2080 | 349.8663 | 110.3360 | 14.39698 | – |
| 2026 Apr 22 17:57 | 2026 Apr 19 04:27:19 | 98.9194 | 0.00225 | 13.2080 | 349.8663 | 110.3360 | 14.39698 | – |
| 2026 Apr 21 17:57 | 2026 Apr 19 04:27:19 | 98.9194 | 0.00225 | 13.2080 | 349.8663 | 110.3360 | 14.39698 | – |
| 2026 Apr 20 17:57 | 2026 Apr 19 04:27:19 | 98.9194 | 0.00225 | 13.2080 | 349.8663 | 110.3360 | 14.39698 | – |
| 2026 Apr 19 17:58 | 2026 Apr 19 04:27:19 | 98.9194 | 0.00225 | 13.2080 | 349.8663 | 110.3360 | 14.39698 | – |
| 2026 Apr 18 17:56 | 2026 Apr 10 05:22:58 | 98.9167 | 0.00231 | 12.5864 | 18.1841 | 110.3360 | 14.39698 | – |
| 2026 Apr 16 17:57 | 2026 Apr 10 05:22:58 | 98.9167 | 0.00231 | 12.5864 | 18.1841 | 110.3360 | 14.39698 | – |
| 2026 Apr 14 17:57 | 2026 Apr 10 05:22:58 | 98.9167 | 0.00231 | 12.5864 | 18.1841 | 110.3360 | 14.39698 | – |
| 2026 Apr 13 17:57 | 2026 Apr 10 05:22:58 | 98.9167 | 0.00231 | 12.5864 | 18.1841 | 110.3360 | 14.39698 | – |
| 2026 Apr 12 17:57 | 2026 Apr 08 04:53:25 | 98.9175 | 0.00233 | 12.4462 | 24.5690 | 110.3360 | 14.39698 | – |
| 2026 Apr 11 17:57 | 2026 Apr 08 04:53:25 | 98.9175 | 0.00233 | 12.4462 | 24.5690 | 110.3360 | 14.39698 | – |
| 2026 Apr 10 17:58 | 2026 Apr 08 04:53:25 | 98.9175 | 0.00233 | 12.4462 | 24.5690 | 110.3360 | 14.39698 | – |
| 2026 Apr 09 18:01 | 2026 Apr 08 04:53:25 | 98.9175 | 0.00233 | 12.4462 | 24.5690 | 110.3360 | 14.39698 | – |
| 2026 Apr 08 17:57 | 2026 Apr 08 04:53:25 | 98.9175 | 0.00233 | 12.4462 | 24.5690 | 110.3360 | 14.39698 | – |
| 2026 Apr 07 17:57 | 2026 Apr 02 05:34:19 | 98.9189 | 0.00241 | 12.0320 | 43.1833 | 110.3360 | 14.39698 | – |
| 2026 Apr 06 17:57 | 2026 Apr 02 05:34:19 | 98.9189 | 0.00241 | 12.0320 | 43.1833 | 110.3360 | 14.39698 | – |